Time;durP1;ratioP1;P1;durP2;ratioP2;P2;SDS_P1;SDS_P2;PMS_P1;PMS_P2;Temp;Humidity;BMP_temperature;BMP_pressure;BME280_temperature;BME280_humidity;BME280_pressure;Samples;Min_cycle;Max_cycle;Signal;HPM_P1;HPM_P2
2023/08/25 00:00:09;;;;;;;10.25;6.90;;;;;;;21.57;73.43;99236.59;4906711;29;19999;-87
2023/08/25 00:02:36;;;;;;;9.48;6.65;;;;;;;21.42;74.72;99245.50;4906871;29;20125;-87
2023/08/25 00:05:03;;;;;;;12.68;7.00;;;;;;;21.33;74.41;99256.56;4912999;29;20036;-88
2023/08/25 00:07:30;;;;;;;10.80;7.10;;;;;;;21.29;75.55;99253.75;4895330;29;20035;-88
2023/08/25 00:09:57;;;;;;;9.82;6.28;;;;;;;21.20;74.83;99255.78;4902957;29;20072;-87
2023/08/25 00:12:23;;;;;;;10.43;7.05;;;;;;;21.28;74.57;99271.28;4910156;29;20127;-87
2023/08/25 00:14:50;;;;;;;7.97;6.90;;;;;;;21.25;74.76;99279.38;4887761;29;20107;-88
2023/08/25 00:17:18;;;;;;;12.20;6.93;;;;;;;21.17;75.47;99272.91;4903460;29;20027;-88
2023/08/25 00:19:43;;;;;;;11.43;7.03;;;;;;;21.07;75.60;99263.19;4919039;29;20028;-88
2023/08/25 00:22:09;;;;;;;9.23;6.50;;;;;;;21.15;74.69;99281.44;4902660;29;20032;-87
2023/08/25 00:24:35;;;;;;;8.43;7.25;;;;;;;21.07;75.12;99276.09;4887205;29;20034;-87
2023/08/25 00:27:00;;;;;;;7.57;6.47;;;;;;;21.08;75.15;99286.69;4887422;29;20031;-88
2023/08/25 00:29:26;;;;;;;7.80;6.18;;;;;;;20.96;75.20;99271.06;4887332;29;20095;-88
2023/08/25 00:31:51;;;;;;;9.38;6.57;;;;;;;21.06;74.68;99277.22;4902653;29;20497;-88
2023/08/25 00:34:17;;;;;;;8.10;6.35;;;;;;;21.14;74.01;99277.09;4886906;29;20080;-87
2023/08/25 00:36:42;;;;;;;12.63;6.60;;;;;;;21.15;73.77;99277.91;4887472;29;20039;-88
2023/08/25 00:39:12;;;;;;;7.05;6.07;;;;;;;21.27;73.53;99291.63;4887011;29;20498;-87
2023/08/25 00:41:38;;;;;;;9.82;6.20;;;;;;;21.25;73.76;99284.88;4902236;29;20163;-86
2023/08/25 00:44:04;;;;;;;9.15;6.00;;;;;;;21.29;73.50;99302.22;4887157;29;20490;-88
2023/08/25 00:46:31;;;;;;;8.13;6.53;;;;;;;21.20;72.87;99283.94;4901808;29;20063;-87
2023/08/25 00:48:57;;;;;;;10.15;6.85;;;;;;;21.30;73.67;99299.13;4886792;29;20028;-88
2023/08/25 00:51:22;;;;;;;9.75;6.47;;;;;;;21.17;74.61;99276.44;4896329;29;20107;-88
2023/08/25 00:53:48;;;;;;;12.43;6.70;;;;;;;21.26;76.50;99300.16;4876794;29;20043;-87
2023/08/25 00:56:15;;;;;;;8.32;7.30;;;;;;;21.22;77.34;99291.84;4905394;29;20023;-88
2023/08/25 00:58:41;;;;;;;10.13;7.05;;;;;;;21.07;78.33;99287.84;4905965;29;20031;-87
2023/08/25 01:01:07;;;;;;;13.68;8.20;;;;;;;21.11;79.08;99296.97;4904536;29;20095;-88
2023/08/25 01:03:33;;;;;;;9.90;7.47;;;;;;;20.95;79.98;99296.03;4905495;29;20038;-88
2023/08/25 01:05:59;;;;;;;13.48;8.23;;;;;;;20.93;80.14;99301.84;4906028;29;20034;-87
2023/08/25 01:08:26;;;;;;;8.85;7.57;;;;;;;20.88;78.29;99279.38;4905528;29;20410;-87
2023/08/25 01:11:14;;;;;;;12.13;7.40;;;;;;;20.98;78.32;99304.38;4905361;29;20504;-87
2023/08/25 01:13:58;;;;;;;12.18;7.82;;;;;;;21.07;79.54;99317.16;4921037;29;20054;-87
2023/08/25 01:16:28;;;;;;;10.48;7.18;;;;;;;20.98;77.74;99314.53;4936959;29;20403;-88
2023/08/25 01:18:54;;;;;;;13.63;7.53;;;;;;;20.92;79.37;99315.88;4890278;29;20028;-88
2023/08/25 01:21:19;;;;;;;12.80;7.60;;;;;;;20.88;79.10;99328.63;4887882;29;20020;-87
2023/08/25 01:23:50;;;;;;;14.30;7.88;;;;;;;20.91;78.70;99325.22;4880395;29;20495;-87
2023/08/25 01:26:16;;;;;;;11.88;8.07;;;;;;;20.97;79.76;99326.59;4918153;29;20095;-89
2023/08/25 01:28:42;;;;;;;12.40;7.45;;;;;;;21.07;79.67;99320.69;4885697;29;20039;-87
2023/08/25 01:31:10;;;;;;;10.95;7.93;;;;;;;21.05;78.26;99312.00;4886367;29;20521;-88
2023/08/25 01:33:36;;;;;;;11.63;7.30;;;;;;;20.94;79.45;99319.88;4886211;29;20032;-86
2023/08/25 01:36:10;;;;;;;15.50;7.07;;;;;;;20.82;79.56;99322.56;4901715;29;20502;-87
2023/08/25 01:38:50;;;;;;;11.60;7.35;;;;;;;20.84;79.42;99333.97;4901927;29;20028;-86
2023/08/25 01:41:31;;;;;;;10.27;7.05;;;;;;;20.80;79.21;99333.06;4885981;29;20088;-87
2023/08/25 01:43:58;;;;;;;13.38;6.97;;;;;;;20.80;78.10;99316.63;4901558;29;20055;-87
2023/08/25 01:46:24;;;;;;;10.23;6.43;;;;;;;20.88;77.03;99318.47;4886404;29;20039;-87
2023/08/25 01:48:52;;;;;;;9.45;6.57;;;;;;;20.98;76.28;99328.22;4917817;29;20058;-88
2023/08/25 01:51:19;;;;;;;9.23;6.88;;;;;;;20.96;75.26;99298.44;4901959;29;20068;-87
2023/08/25 01:53:52;;;;;;;10.77;6.10;;;;;;;21.12;74.98;99314.19;4885704;29;20048;-87
2023/08/25 01:56:21;;;;;;;10.75;6.05;;;;;;;21.09;73.56;99304.72;4901435;29;20031;-87
2023/08/25 01:58:47;;;;;;;11.85;5.80;;;;;;;21.06;72.78;99285.44;4888819;29;20067;-87
2023/08/25 02:01:13;;;;;;;7.35;5.47;;;;;;;21.06;72.13;99283.47;4918625;29;20027;-87
2023/08/25 02:03:38;;;;;;;9.27;5.88;;;;;;;21.00;72.20;99268.44;4895671;29;20042;-87
2023/08/25 02:06:05;;;;;;;8.02;5.10;;;;;;;21.05;72.14;99281.91;4888477;29;20090;-87
2023/08/25 02:08:30;;;;;;;13.00;5.82;;;;;;;20.98;72.06;99274.25;4904538;29;20027;-88
2023/08/25 02:10:56;;;;;;;7.68;5.72;;;;;;;21.08;70.90;99273.00;4904745;29;20032;-87
2023/08/25 02:13:24;;;;;;;12.77;7.07;;;;;;;21.12;71.40;99279.38;4904234;29;20027;-87
2023/08/25 02:15:51;;;;;;;17.27;7.70;;;;;;;21.02;71.23;99273.56;4919713;29;20035;-87
2023/08/25 02:18:17;;;;;;;10.82;7.78;;;;;;;20.90;72.80;99288.84;4921015;29;20564;-87
2023/08/25 02:20:42;;;;;;;9.73;7.22;;;;;;;20.98;71.95;99295.38;4920057;29;20020;-87
2023/08/25 02:23:08;;;;;;;10.90;6.38;;;;;;;20.94;71.36;99287.03;4904762;29;20051;-87
2023/08/25 02:25:34;;;;;;;9.35;6.00;;;;;;;20.99;71.93;99295.00;4920232;29;20034;-87
2023/08/25 02:28:04;;;;;;;7.80;6.22;;;;;;;21.00;72.35;99290.34;4905127;29;20028;-87
2023/08/25 02:30:30;;;;;;;8.75;6.32;;;;;;;20.93;72.10;99284.63;4920061;29;20040;-86
2023/08/25 02:32:56;;;;;;;10.73;6.22;;;;;;;20.84;73.45;99281.97;4920016;29;20027;-87
2023/08/25 02:35:24;;;;;;;8.20;5.70;;;;;;;20.53;74.55;99279.72;4904587;29;20055;-88
2023/08/25 02:38:00;;;;;;;10.48;5.97;;;;;;;20.52;74.66;99287.13;4903991;29;20063;-88
2023/08/25 02:40:26;;;;;;;6.68;5.60;;;;;;;20.42;75.27;99281.25;4903535;29;20059;-87
2023/08/25 02:42:54;;;;;;;9.38;5.85;;;;;;;20.43;75.83;99294.59;4904473;29;20394;-88
2023/08/25 02:45:19;;;;;;;11.95;6.43;;;;;;;20.19;76.42;99290.63;4925828;29;20047;-87
2023/08/25 02:47:45;;;;;;;9.23;6.20;;;;;;;20.18;76.18;99294.50;4899869;29;20040;-87
2023/08/25 02:50:10;;;;;;;8.77;6.07;;;;;;;20.19;76.59;99296.09;4882745;29;20067;-87
2023/08/25 02:52:36;;;;;;;11.18;6.25;;;;;;;20.16;76.55;99291.28;4893310;29;20059;-86
2023/08/25 02:55:01;;;;;;;10.20;5.93;;;;;;;20.16;76.36;99301.44;4889088;29;20020;-88
2023/08/25 02:57:27;;;;;;;8.70;6.35;;;;;;;20.08;77.05;99275.75;4888536;29;20031;-88
2023/08/25 02:59:53;;;;;;;11.60;6.65;;;;;;;20.10;76.96;99291.84;4889504;29;20052;-88
2023/08/25 03:02:19;;;;;;;11.45;5.78;;;;;;;20.05;77.15;99286.59;4889157;29;20059;-88
2023/08/25 03:04:44;;;;;;;15.05;6.43;;;;;;;20.13;77.29;99293.88;4904588;29;20055;-87
2023/08/25 03:07:10;;;;;;;9.20;5.70;;;;;;;20.09;77.63;99303.91;4889221;29;20090;-87
2023/08/25 03:09:36;;;;;;;7.45;5.55;;;;;;;20.05;77.84;99292.03;4889039;29;20119;-86
2023/08/25 03:12:06;;;;;;;9.80;6.00;;;;;;;20.02;77.61;99293.50;4888580;29;20057;-87
2023/08/25 03:14:33;;;;;;;9.70;5.85;;;;;;;20.03;77.27;99289.63;4905524;29;20083;-87
2023/08/25 03:16:59;;;;;;;10.73;6.25;;;;;;;20.11;77.38;99316.09;4909380;29;20384;-87
2023/08/25 03:19:25;;;;;;;8.73;5.88;;;;;;;20.01;78.71;99288.38;4897797;29;20091;-87
2023/08/25 03:21:51;;;;;;;13.23;6.32;;;;;;;20.01;79.63;99293.84;4907515;29;20019;-88
2023/08/25 03:24:16;;;;;;;12.27;6.13;;;;;;;19.97;79.14;99297.22;4907319;29;20146;-88
2023/08/25 03:26:45;;;;;;;13.70;6.32;;;;;;;19.96;79.08;99286.63;4923368;29;20055;-87
2023/08/25 03:29:10;;;;;;;11.05;6.15;;;;;;;19.85;79.07;99293.63;4907288;29;20042;-87
2023/08/25 03:31:36;;;;;;;9.00;6.63;;;;;;;19.97;79.26;99307.38;4907417;29;20046;-88
2023/08/25 03:34:02;;;;;;;8.52;6.72;;;;;;;19.90;79.15;99305.19;4906801;29;20124;-88
2023/08/25 03:36:29;;;;;;;11.25;6.85;;;;;;;19.88;79.56;99292.94;4922107;29;20028;-86
2023/08/25 03:38:54;;;;;;;9.30;6.65;;;;;;;19.87;79.58;99294.91;4907227;29;20170;-87
2023/08/25 03:41:21;;;;;;;11.30;6.78;;;;;;;19.93;79.08;99292.78;4906607;29;20039;-86
2023/08/25 03:43:46;;;;;;;13.25;6.35;;;;;;;19.92;78.28;99296.63;4921898;29;20027;-87
2023/08/25 03:46:12;;;;;;;8.07;6.15;;;;;;;20.02;77.76;99301.69;4906313;29;20051;-89
2023/08/25 03:48:39;;;;;;;8.50;5.97;;;;;;;20.05;76.95;99279.19;4906144;29;20405;-87
2023/08/25 03:51:06;;;;;;;10.57;6.65;;;;;;;20.08;77.57;99300.34;4939295;29;20016;-87
2023/08/25 03:53:33;;;;;;;8.45;6.18;;;;;;;20.01;77.56;99289.19;4922522;29;20020;-88
2023/08/25 03:55:59;;;;;;;11.48;6.07;;;;;;;20.08;76.00;99288.63;4922438;29;20027;-87
2023/08/25 03:58:25;;;;;;;10.88;5.68;;;;;;;20.21;74.84;99292.22;4902957;29;20024;-87
2023/08/25 04:00:54;;;;;;;7.00;5.45;;;;;;;20.29;74.31;99307.75;4906548;29;20087;-88
2023/08/25 04:03:20;;;;;;;11.13;6.53;;;;;;;20.25;75.47;99302.16;4886706;29;20115;-87
2023/08/25 04:05:46;;;;;;;12.13;6.55;;;;;;;20.41;76.96;99318.75;4905409;29;20501;-90
2023/08/25 04:08:12;;;;;;;12.38;6.68;;;;;;;20.28;77.63;99322.56;4902455;29;20079;-88
2023/08/25 04:10:40;;;;;;;14.27;6.05;;;;;;;20.41;77.86;99334.38;4887933;29;20036;-88
2023/08/25 04:13:07;;;;;;;13.25;7.30;;;;;;;20.26;78.08;99313.91;4895554;29;20035;-88
2023/08/25 04:15:33;;;;;;;13.98;7.68;;;;;;;20.34;78.18;99323.97;4907611;29;20111;-87
2023/08/25 04:18:02;;;;;;;17.65;7.40;;;;;;;20.34;78.47;99318.50;4896388;29;20028;-90
2023/08/25 04:20:28;;;;;;;10.20;6.55;;;;;;;20.33;78.60;99311.41;4887839;29;20071;-87
2023/08/25 04:22:53;;;;;;;11.00;6.65;;;;;;;20.33;78.53;99322.34;4887898;29;20045;-86
2023/08/25 04:25:19;;;;;;;9.00;6.70;;;;;;;20.33;78.93;99317.69;4901043;29;20028;-87
2023/08/25 04:27:46;;;;;;;17.92;6.55;;;;;;;20.29;77.94;99321.44;4891998;29;20040;-89
2023/08/25 04:30:11;;;;;;;10.68;6.28;;;;;;;20.34;76.89;99324.75;4902658;29;20011;-88
2023/08/25 04:33:01;;;;;;;13.27;5.90;;;;;;;20.54;75.84;99328.63;4899223;29;20175;-88
2023/08/25 04:35:27;;;;;;;12.18;5.93;;;;;;;20.56;75.57;99320.84;4900816;29;20027;-88
2023/08/25 04:37:54;;;;;;;8.85;6.40;;;;;;;20.45;76.30;99305.22;4906170;29;20027;-88
2023/08/25 04:40:21;;;;;;;12.70;5.78;;;;;;;20.41;75.78;99304.28;4922227;29;20138;-91
2023/08/25 04:42:48;;;;;;;8.15;6.03;;;;;;;20.67;75.47;99347.81;4906433;29;20042;-86
2023/08/25 04:45:14;;;;;;;15.07;6.15;;;;;;;20.63;76.13;99323.09;4906542;29;20070;-88
2023/08/25 04:47:41;;;;;;;18.13;6.00;;;;;;;20.69;76.11;99324.47;4884600;29;20024;-88
2023/08/25 04:50:08;;;;;;;10.10;5.93;;;;;;;20.85;74.59;99343.78;4895367;29;20024;-89
2023/08/25 04:52:34;;;;;;;9.63;6.47;;;;;;;20.96;73.90;99339.50;4897411;29;20020;-89
2023/08/25 04:55:01;;;;;;;12.07;5.45;;;;;;;21.22;70.82;99349.34;4887640;29;20447;-89
2023/08/25 04:57:27;;;;;;;7.40;5.32;;;;;;;21.29;70.08;99332.34;4888200;29;20099;-87
2023/08/25 04:59:53;;;;;;;9.77;7.60;;;;;;;21.20;70.11;99329.72;4905848;29;20499;-90
2023/08/25 05:02:23;;;;;;;8.70;4.95;;;;;;;21.30;69.59;99336.69;4873396;29;20095;-91
2023/08/25 05:04:49;;;;;;;9.50;5.10;;;;;;;21.34;69.79;99337.59;4887555;29;20047;-90
2023/08/25 05:07:16;;;;;;;12.07;6.20;;;;;;;21.30;69.65;99323.78;4884961;29;20110;-93
2023/08/25 05:09:41;;;;;;;9.77;5.45;;;;;;;21.49;68.99;99330.69;4890821;29;20388;-94
2023/08/25 05:12:08;;;;;;;15.13;5.05;;;;;;;21.64;67.38;99329.19;4894437;29;20072;-96
2023/08/25 05:14:33;;;;;;;10.55;5.32;;;;;;;21.86;66.70;99347.09;4908794;29;20099;-95
2023/08/25 05:16:59;;;;;;;11.07;5.97;;;;;;;21.89;68.72;99347.19;4891956;29;20059;-92
2023/08/25 05:19:31;;;;;;;7.15;5.28;;;;;;;21.93;67.93;99334.38;4891160;29;20032;-94
2023/08/25 05:21:56;;;;;;;;;;;;;;;22.26;67.38;99368.31;4874492;29;20048;-93
2023/08/25 05:24:49;;;;;;;9.30;6.20;;;;;;;22.28;64.70;99355.81;4905784;29;19919;-94
2023/08/25 05:27:15;;;;;;;;;;;;;;;22.40;65.99;99364.03;4898010;29;20040;-95
2023/08/25 05:29:43;;;;;;;9.02;5.85;;;;;;;22.45;65.09;99364.94;4906201;29;19915;-94
2023/08/25 05:32:12;;;;;;;13.13;5.05;;;;;;;22.33;64.75;99341.88;4893523;29;20167;-95
2023/08/25 05:34:37;;;;;;;8.10;5.15;;;;;;;22.51;64.84;99344.31;4891953;29;20091;-94
2023/08/25 05:37:04;;;;;;;8.95;5.20;;;;;;;22.64;65.46;99362.34;4910391;29;20097;-96
2023/08/25 05:40:12;;;;;;;;;;;;;;;;;;;;;
2023/08/25 05:42:39;;;;;;;10.52;5.60;;;;;;;22.55;65.71;99369.91;4913091;29;20111;-94
2023/08/25 05:45:11;;;;;;;9.10;5.10;;;;;;;22.54;65.81;99341.69;4888403;29;20058;-94
2023/08/25 05:47:45;;;;;;;18.50;5.70;;;;;;;22.79;64.69;99361.59;4892019;29;20095;-93
2023/08/25 05:50:13;;;;;;;17.23;6.00;;;;;;;22.63;65.48;99347.03;4877272;29;20024;-92
2023/08/25 05:56:13;;;;;;;;;;;;;;;23.06;64.60;99381.16;4907283;29;20066;-94
2023/08/25 05:59:00;;;;;;;13.73;6.47;;;;;;;22.95;64.70;99355.31;4935903;29;19915;-96
2023/08/25 06:04:42;;;;;;;10.25;6.32;;;;;;;23.22;63.93;99350.16;4954063;28;20491;-96
2023/08/25 06:10:56;;;;;;;8.13;5.95;;;;;;;23.07;64.31;99359.97;4926313;29;20058;-95
2023/08/25 06:13:22;;;;;;;12.57;5.63;;;;;;;23.18;64.49;99358.31;4847575;29;20069;-95
2023/08/25 06:15:52;;;;;;;12.27;7.15;;;;;;;23.40;64.09;99365.13;4837003;29;20561;-94
2023/08/25 06:18:30;;;;;;;9.60;6.03;;;;;;;23.53;63.11;99357.59;4856446;29;20047;-96
2023/08/25 06:21:09;;;;;;;12.55;6.97;;;;;;;23.81;62.88;99382.25;4893874;29;20067;-96
2023/08/25 06:24:01;;;;;;;12.75;5.93;;;;;;;23.95;62.41;99371.59;4936317;29;20036;-96
2023/08/25 06:26:33;;;;;;;9.63;5.70;;;;;;;23.93;62.30;99351.91;4905275;29;20024;-95
2023/08/25 06:28:59;;;;;;;13.13;6.35;;;;;;;24.11;61.23;99357.78;4922828;29;20028;-96
2023/08/25 06:31:30;;;;;;;14.75;5.88;;;;;;;24.04;60.89;99352.13;4891717;29;20060;-96
2023/08/25 06:33:56;;;;;;;10.20;5.70;;;;;;;24.24;60.73;99363.97;4903021;29;20084;-95
2023/08/25 06:41:36;;;;;;;13.65;6.07;;;;;;;24.88;60.32;99386.53;4937748;26;20056;-89
2023/08/25 06:44:02;;;;;;;12.00;6.05;;;;;;;24.92;59.84;99359.03;4889805;29;20042;-89
2023/08/25 06:46:30;;;;;;;11.32;7.50;;;;;;;25.13;58.70;99359.44;4886844;29;20040;-91
2023/08/25 06:48:56;;;;;;;14.18;6.47;;;;;;;25.30;57.83;99366.44;4884122;29;20036;-92
2023/08/25 06:51:42;;;;;;;12.07;6.40;;;;;;;25.37;57.74;99366.53;4899716;29;20076;-91
2023/08/25 06:54:29;;;;;;;9.50;6.25;;;;;;;25.50;57.58;99355.31;4909403;29;20040;-92
2023/08/25 06:56:56;;;;;;;13.55;8.30;;;;;;;25.61;57.08;99370.88;4912930;29;20035;-90
2023/08/25 06:59:42;;;;;;;11.38;7.68;;;;;;;25.81;56.29;99366.06;4899386;29;20040;-91
2023/08/25 07:02:08;;;;;;;11.45;7.55;;;;;;;26.07;56.63;99378.28;4903876;29;20028;-91
2023/08/25 07:04:34;;;;;;;14.45;7.47;;;;;;;25.99;56.87;99358.06;4885139;29;20038;-90
2023/08/25 07:07:33;;;;;;;12.32;7.28;;;;;;;26.03;57.01;99354.59;4883115;29;20095;-90
2023/08/25 07:10:04;;;;;;;11.80;6.35;;;;;;;26.21;55.95;99352.88;4904300;29;20105;-92
2023/08/25 07:12:49;;;;;;;;;;;;;;;;;;;;;
2023/08/25 07:15:24;;;;;;;19.13;13.43;;;;;;;26.47;55.47;99363.03;4908378;29;20119;-93
2023/08/25 07:18:03;;;;;;;18.67;8.25;;;;;;;26.77;55.14;99374.06;4896389;29;20039;-93
2023/08/25 07:20:35;;;;;;;23.23;12.15;;;;;;;26.81;54.84;99358.34;4907997;29;20181;-91
2023/08/25 07:23:34;;;;;;;19.70;15.55;;;;;;;26.92;54.98;99365.94;4891871;29;20032;-90
2023/08/25 07:29:35;;;;;;;11.93;7.55;;;;;;;26.89;54.14;99359.19;4924728;29;20039;-88
2023/08/25 07:32:23;;;;;;;30.52;23.63;;;;;;;27.28;53.99;99371.84;4907410;29;20379;-88
2023/08/25 07:34:56;;;;;;;18.60;11.82;;;;;;;27.32;54.02;99353.31;4910659;29;20494;-90
2023/08/25 07:40:11;;;;;;;251.52;178.80;;;;;;;27.68;53.38;99340.53;4851566;29;20050;-90
2023/08/25 07:42:46;;;;;;;17.60;12.05;;;;;;;27.88;52.80;99338.34;4866035;29;20062;-92
2023/08/25 07:45:12;;;;;;;11.02;8.68;;;;;;;27.96;52.20;99334.44;4880995;29;20039;-91
2023/08/25 07:47:55;;;;;;;12.88;8.02;;;;;;;28.11;52.11;99338.06;4907335;29;20406;-95
2023/08/25 07:50:21;;;;;;;10.18;6.07;;;;;;;28.15;52.13;99327.00;4917696;29;20032;-94
2023/08/25 07:53:10;;;;;;;8.98;6.82;;;;;;;28.27;51.57;99336.97;4871896;29;20092;-94
2023/08/25 07:55:53;;;;;;;10.48;7.43;;;;;;;28.32;52.00;99334.59;4861495;29;20033;-90
2023/08/25 07:58:34;;;;;;;9.98;6.85;;;;;;;28.41;51.32;99345.31;4822315;29;20037;-95
2023/08/25 08:01:22;;;;;;;;;;;;;;;;;;;;;
2023/08/25 08:04:30;;;;;;;12.70;6.53;;;;;;;28.61;50.10;99340.25;4838774;29;20101;-91
2023/08/25 08:07:13;;;;;;;10.15;6.63;;;;;;;28.74;51.00;99337.91;4858637;29;20047;-92
2023/08/25 08:09:42;;;;;;;11.00;7.30;;;;;;;28.91;50.95;99341.91;4828735;29;20021;-94
2023/08/25 08:12:37;;;;;;;10.45;7.38;;;;;;;29.15;50.24;99357.81;4845887;29;19924;-93
2023/08/25 08:15:30;;;;;;;12.30;6.97;;;;;;;29.15;49.96;99343.16;4850881;29;20053;-93
2023/08/25 08:17:56;;;;;;;9.75;6.50;;;;;;;29.25;48.61;99349.91;4825604;29;20064;-92
2023/08/25 08:20:24;;;;;;;9.40;6.35;;;;;;;29.16;48.10;99337.22;4798020;29;20038;-88
2023/08/25 08:22:50;;;;;;;16.77;9.77;;;;;;;29.31;49.16;99340.81;4800017;29;20106;-90
2023/08/25 08:25:20;;;;;;;8.90;7.22;;;;;;;29.38;49.14;99337.22;4809032;29;20982;-91
2023/08/25 08:27:46;;;;;;;12.85;6.53;;;;;;;29.44;48.81;99338.41;4859954;29;20131;-90
2023/08/25 08:30:14;;;;;;;22.90;15.43;;;;;;;29.33;48.37;99332.88;4842227;29;20056;-89
2023/08/25 08:32:40;;;;;;;8.88;6.93;;;;;;;29.59;47.93;99350.28;4842606;29;20041;-90
2023/08/25 08:35:18;;;;;;;9.40;7.90;;;;;;;29.53;47.72;99327.72;4858101;29;20044;-95
2023/08/25 08:37:43;;;;;;;11.75;7.22;;;;;;;29.56;47.93;99315.81;4863372;29;20049;-91
2023/08/25 08:40:12;;;;;;;12.65;6.90;;;;;;;29.76;47.88;99319.00;4843850;29;20428;-93
2023/08/25 08:42:39;;;;;;;10.35;6.68;;;;;;;29.97;47.73;99334.81;4853913;29;20080;-89
2023/08/25 08:45:11;;;;;;;10.07;7.25;;;;;;;30.07;46.78;99341.53;4851826;29;20025;-89
2023/08/25 08:47:41;;;;;;;13.20;7.85;;;;;;;30.16;46.95;99329.97;4857435;29;20009;-89
2023/08/25 08:50:07;;;;;;;11.13;8.13;;;;;;;30.09;46.35;99327.22;4904045;29;20050;-89
2023/08/25 08:52:35;;;;;;;20.85;18.60;;;;;;;30.05;46.50;99312.56;4867203;29;20037;-90
2023/08/25 08:55:03;;;;;;;8.40;5.97;;;;;;;30.26;46.21;99331.94;4898602;29;20020;-91
2023/08/25 08:57:34;;;;;;;8.25;6.30;;;;;;;30.27;46.42;99335.50;4901650;29;20028;-89
2023/08/25 09:00:12;;;;;;;10.90;6.22;;;;;;;30.21;45.03;99318.44;4894675;29;20411;-89
2023/08/25 09:02:48;;;;;;;11.40;6.03;;;;;;;30.33;45.56;99328.34;4893680;29;20068;-90
2023/08/25 09:05:18;;;;;;;9.90;7.00;;;;;;;30.40;46.04;99323.56;4898487;29;20028;-91
2023/08/25 09:07:45;;;;;;;8.57;6.10;;;;;;;30.45;45.41;99316.00;4878312;29;20032;-90
2023/08/25 09:13:00;;;;;;;8.05;6.05;;;;;;;30.61;44.82;99331.00;4863534;29;20052;-90
2023/08/25 09:15:43;;;;;;;6.38;5.60;;;;;;;30.59;43.40;99327.81;4867323;29;20060;-89
2023/08/25 09:18:11;;;;;;;6.82;5.43;;;;;;;30.48;43.54;99309.63;4873240;29;20464;-91
2023/08/25 09:20:43;;;;;;;9.32;5.40;;;;;;;30.56;43.60;99319.50;4855306;29;20040;-92
2023/08/25 09:23:08;;;;;;;6.70;6.00;;;;;;;30.52;43.30;99310.41;4855515;29;20085;-90
2023/08/25 09:25:34;;;;;;;7.93;5.70;;;;;;;30.50;43.21;99288.56;4872781;29;20460;-91
2023/08/25 09:28:01;;;;;;;10.88;8.10;;;;;;;30.49;43.19;99292.56;4890620;29;20086;-91
2023/08/25 09:30:38;;;;;;;8.98;6.05;;;;;;;30.34;43.88;99304.91;4878906;29;20131;-90
2023/08/25 09:33:05;;;;;;;8.43;5.82;;;;;;;30.48;43.79;99287.38;4911351;29;20423;-91
2023/08/25 09:35:31;;;;;;;8.52;6.43;;;;;;;30.72;43.51;99303.13;4891788;29;20039;-89
2023/08/25 09:37:58;;;;;;;8.65;6.63;;;;;;;30.71;43.86;99290.41;4909010;29;20036;-89
2023/08/25 09:40:29;;;;;;;7.20;5.65;;;;;;;30.90;43.67;99285.56;4908655;29;20048;-89
2023/08/25 09:43:07;;;;;;;7.63;5.40;;;;;;;31.00;43.12;99293.84;4905564;29;20039;-90
2023/08/25 09:45:33;;;;;;;7.13;5.25;;;;;;;30.94;42.37;99259.31;4895712;29;20052;-88
2023/08/25 09:48:12;;;;;;;6.25;5.30;;;;;;;31.01;41.98;99261.25;4874916;29;20028;-89
2023/08/25 09:50:42;;;;;;;6.63;5.00;;;;;;;30.97;41.96;99250.16;4897526;29;20039;-88
2023/08/25 09:53:20;;;;;;;11.53;5.70;;;;;;;31.08;42.31;99263.19;4901403;29;20052;-92
2023/08/25 09:55:50;;;;;;;6.63;5.43;;;;;;;31.10;42.27;99247.66;4936183;29;20282;-89
2023/08/25 09:58:36;;;;;;;7.30;5.70;;;;;;;31.15;41.66;99249.19;4892883;29;20040;-88
2023/08/25 10:01:06;;;;;;;5.75;5.15;;;;;;;31.24;42.06;99246.75;4903024;29;20023;-89
2023/08/25 10:03:31;;;;;;;6.10;5.50;;;;;;;31.41;42.12;99258.91;4890572;29;20028;-90
2023/08/25 10:06:00;;;;;;;9.48;6.22;;;;;;;31.44;42.15;99252.53;4886118;29;20114;-90
2023/08/25 10:08:35;;;;;;;6.38;5.38;;;;;;;31.50;41.69;99242.53;4900828;29;20043;-96
2023/08/25 10:11:06;;;;;;;10.55;5.72;;;;;;;31.39;41.62;99248.16;4911608;29;20067;-95
2023/08/25 10:13:55;;;;;;;8.82;5.85;;;;;;;31.46;42.28;99216.75;4909160;29;20016;-96
2023/08/25 10:16:41;;;;;;;8.38;5.97;;;;;;;31.44;41.84;99219.16;4892653;29;20032;-96
2023/08/25 10:20:04;;;;;;;7.13;5.72;;;;;;;31.70;41.09;99237.13;4924299;29;20036;-96
2023/08/25 10:26:13;;;;;;;6.78;5.70;;;;;;;31.52;41.37;99214.28;4855180;29;20041;-95
2023/08/25 10:28:52;;;;;;;7.20;5.50;;;;;;;31.60;41.15;99210.22;4906480;29;20029;-96
2023/08/25 10:32:21;;;;;;;7.32;4.97;;;;;;;31.86;40.08;99228.22;4873132;29;20045;-96
2023/08/25 10:35:11;;;;;;;;;;;;;;;;;;;;;
2023/08/25 11:30:49;;;;;;;12.70;5.32;;;;;;;32.94;37.67;99165.34;4934009;28;20044;-90
2023/08/25 11:33:21;;;;;;;6.15;4.93;;;;;;;33.12;36.95;99179.78;4896287;29;20044;-92
2023/08/25 11:36:06;;;;;;;8.40;4.90;;;;;;;33.22;36.95;99192.75;4896464;29;20498;-88
2023/08/25 11:38:32;;;;;;;10.02;5.32;;;;;;;33.14;36.08;99159.81;4920328;29;20046;-91
2023/08/25 11:41:15;;;;;;;6.55;5.60;;;;;;;33.16;36.62;99160.97;4899601;29;20027;-93
2023/08/25 11:43:45;;;;;;;6.20;5.13;;;;;;;33.30;36.69;99175.84;4903382;29;20426;-91
2023/08/25 11:46:30;;;;;;;10.20;7.03;;;;;;;33.00;37.59;99164.41;4884509;29;20033;-93
2023/08/25 11:51:50;;;;;;;9.52;5.15;;;;;;;33.19;37.00;99164.91;4876881;29;20103;-91
2023/08/25 11:54:18;;;;;;;7.25;4.97;;;;;;;33.18;36.51;99152.16;4869361;29;20423;-91
2023/08/25 11:57:05;;;;;;;;;;;;;;;;;;;;;
2023/08/25 11:59:33;;;;;;;6.28;4.50;;;;;;;33.34;36.30;99145.88;4871278;29;20115;-88
2023/08/25 12:05:08;;;;;;;8.73;5.05;;;;;;;33.50;36.08;99159.91;4852025;29;20041;-89
2023/08/25 12:07:37;;;;;;;7.35;4.97;;;;;;;33.62;35.55;99164.09;4875058;29;20039;-89
2023/08/25 12:12:55;;;;;;;8.20;5.10;;;;;;;33.79;34.86;99165.72;5150753;23;20047;-95
2023/08/25 12:15:24;;;;;;;7.03;4.72;;;;;;;33.71;34.01;99155.13;4897762;29;20095;-95
2023/08/25 12:27:32;;;;;;;6.50;5.15;;;;;;;33.64;33.88;99139.31;5664020;23;21484;-96
2023/08/25 12:30:30;;;;;;;;;;;;;;;;;;;;;
2023/08/25 12:35:43;;;;;;;40.47;33.63;;;;;;;33.85;33.93;99154.00;5745076;23;20026;-96
2023/08/25 12:50:07;;;;;;;8.13;5.25;;;;;;;33.81;34.25;99129.75;4948596;28;20122;-96
2023/08/25 13:05:15;;;;;;;6.85;5.07;;;;;;;33.68;32.99;99126.06;4947458;28;20036;-95
2023/08/25 13:07:55;;;;;;;6.55;5.07;;;;;;;33.73;33.14;99114.38;5077202;23;20084;-96
2023/08/25 13:10:59;;;;;;;6.68;4.78;;;;;;;33.55;32.56;99097.97;4903010;29;20047;-96
2023/08/25 13:16:00;;;;;;;7.63;5.00;;;;;;;33.68;33.03;99105.72;4983219;23;20052;-96
2023/08/25 13:18:29;;;;;;;5.90;4.72;;;;;;;33.79;33.15;99098.69;4899681;29;20040;-88
2023/08/25 13:20:55;;;;;;;6.00;5.13;;;;;;;33.81;33.17;99090.66;4904056;29;20024;-91
2023/08/25 13:23:41;;;;;;;7.80;5.18;;;;;;;33.99;32.52;99114.59;4888352;29;20082;-91
2023/08/25 13:26:08;;;;;;;9.80;4.97;;;;;;;33.94;32.83;99087.19;4895402;29;20028;-91
2023/08/25 13:28:36;;;;;;;7.35;4.50;;;;;;;34.08;32.09;99103.63;4879697;29;20032;-92
2023/08/25 13:31:02;;;;;;;5.90;4.82;;;;;;;34.16;31.78;99090.25;4888698;29;20064;-92
2023/08/25 13:33:31;;;;;;;6.57;4.80;;;;;;;34.15;31.54;99080.31;4891003;29;20059;-91
2023/08/25 13:36:01;;;;;;;7.88;5.35;;;;;;;34.16;32.22;99076.28;4907510;29;20062;-91
2023/08/25 13:38:28;;;;;;;6.03;5.18;;;;;;;34.24;32.30;99071.31;4883723;29;20047;-92
2023/08/25 13:40:55;;;;;;;8.63;5.68;;;;;;;34.32;33.01;99089.50;4899945;29;20047;-91
2023/08/25 13:43:23;;;;;;;8.05;6.15;;;;;;;34.35;32.22;99074.66;4888951;29;20035;-92
2023/08/25 13:45:49;;;;;;;10.70;4.80;;;;;;;34.38;31.79;99068.94;4889039;29;20120;-90
2023/08/25 13:48:15;;;;;;;7.30;5.00;;;;;;;34.45;31.19;99078.38;4888225;29;20039;-89
2023/08/25 13:50:44;;;;;;;12.27;4.45;;;;;;;34.30;30.86;99075.16;4873886;29;20025;-88
2023/08/25 13:53:10;;;;;;;6.38;4.32;;;;;;;34.46;31.80;99077.16;4895620;29;20083;-90
2023/08/25 13:55:35;;;;;;;5.50;4.03;;;;;;;34.54;31.00;99081.34;4907134;29;20032;-91
2023/08/25 13:58:02;;;;;;;6.60;4.32;;;;;;;34.42;29.99;99064.06;4883691;29;20147;-90
2023/08/25 14:00:27;;;;;;;7.45;4.25;;;;;;;34.40;30.02;99074.88;4886304;29;20028;-90
2023/08/25 14:02:53;;;;;;;9.27;4.38;;;;;;;34.45;29.53;99072.78;4908835;29;20032;-90